sensor_id;sensor_type;location;lat;lon;timestamp;P1;durP1;ratioP1;P2;durP2;ratioP2
15970;SDS011;59785;52.582;13.892;2022-09-09T03:29:51;11.65;;;9.07;;
15970;SDS011;59785;52.582;13.892;2022-09-09T03:32:21;14.77;;;10.45;;
15970;SDS011;59785;52.582;13.892;2022-09-09T03:34:55;14.75;;;11.63;;
15970;SDS011;59785;52.582;13.892;2022-09-09T03:37:21;15.02;;;11.27;;
15970;SDS011;59785;52.582;13.892;2022-09-09T03:39:49;15.13;;;12.13;;
15970;SDS011;59785;52.582;13.892;2022-09-09T03:42:16;16.17;;;11.77;;
15970;SDS011;59785;52.582;13.892;2022-09-09T03:44:47;16.27;;;12.50;;
15970;SDS011;59785;52.582;13.892;2022-09-09T03:47:20;17.08;;;12.90;;
15970;SDS011;59785;52.582;13.892;2022-09-09T03:49:54;18.40;;;12.57;;
15970;SDS011;59785;52.582;13.892;2022-09-09T03:52:21;16.52;;;12.23;;
15970;SDS011;59785;52.582;13.892;2022-09-09T03:54:51;18.65;;;13.07;;
15970;SDS011;59785;52.582;13.892;2022-09-09T03:57:19;18.33;;;13.35;;
15970;SDS011;59785;52.582;13.892;2022-09-09T03:59:45;17.13;;;13.13;;
15970;SDS011;59785;52.582;13.892;2022-09-09T04:02:11;17.27;;;13.32;;
15970;SDS011;59785;52.582;13.892;2022-09-09T04:04:38;17.27;;;12.90;;
15970;SDS011;59785;52.582;13.892;2022-09-09T04:07:04;20.50;;;12.90;;
15970;SDS011;59785;52.582;13.892;2022-09-09T04:09:33;18.92;;;13.23;;
15970;SDS011;59785;52.582;13.892;2022-09-09T04:11:59;21.70;;;13.77;;
15970;SDS011;59785;52.582;13.892;2022-09-09T04:14:25;20.70;;;13.70;;
15970;SDS011;59785;52.582;13.892;2022-09-09T04:16:55;23.63;;;14.25;;
15970;SDS011;59785;52.582;13.892;2022-09-09T04:19:24;18.60;;;13.23;;
15970;SDS011;59785;52.582;13.892;2022-09-09T04:21:51;17.60;;;12.85;;
15970;SDS011;59785;52.582;13.892;2022-09-09T04:24:19;23.65;;;13.55;;
15970;SDS011;59785;52.582;13.892;2022-09-09T04:26:48;20.10;;;13.70;;
15970;SDS011;59785;52.582;13.892;2022-09-09T04:29:15;18.83;;;13.07;;
15970;SDS011;59785;52.582;13.892;2022-09-09T04:31:41;19.23;;;12.63;;
15970;SDS011;59785;52.582;13.892;2022-09-09T04:34:08;19.42;;;13.70;;
15970;SDS011;59785;52.582;13.892;2022-09-09T04:36:35;20.92;;;13.52;;
15970;SDS011;59785;52.582;13.892;2022-09-09T04:39:03;18.52;;;12.48;;
15970;SDS011;59785;52.582;13.892;2022-09-09T04:41:30;20.42;;;13.80;;
15970;SDS011;59785;52.582;13.892;2022-09-09T04:43:57;21.95;;;14.10;;
15970;SDS011;59785;52.582;13.892;2022-09-09T04:46:24;24.55;;;14.63;;
15970;SDS011;59785;52.582;13.892;2022-09-09T04:48:51;23.65;;;14.50;;
15970;SDS011;59785;52.582;13.892;2022-09-09T04:51:19;22.00;;;14.75;;
15970;SDS011;59785;52.582;13.892;2022-09-09T04:53:47;19.02;;;13.57;;
15970;SDS011;59785;52.582;13.892;2022-09-09T04:56:16;20.83;;;14.25;;
15970;SDS011;59785;52.582;13.892;2022-09-09T04:58:48;23.90;;;13.95;;
15970;SDS011;59785;52.582;13.892;2022-09-09T05:01:16;23.25;;;13.15;;
15970;SDS011;59785;52.582;13.892;2022-09-09T05:03:45;24.02;;;14.13;;
15970;SDS011;59785;52.582;13.892;2022-09-09T05:06:19;20.92;;;13.68;;
15970;SDS011;59785;52.582;13.892;2022-09-09T05:08:51;24.13;;;14.05;;
15970;SDS011;59785;52.582;13.892;2022-09-09T05:11:25;23.75;;;13.68;;
15970;SDS011;59785;52.582;13.892;2022-09-09T05:13:58;20.10;;;13.30;;
15970;SDS011;59785;52.582;13.892;2022-09-09T05:16:27;27.60;;;15.05;;
15970;SDS011;59785;52.582;13.892;2022-09-09T05:18:53;28.92;;;14.93;;
15970;SDS011;59785;52.582;13.892;2022-09-09T05:21:20;23.40;;;14.43;;
15970;SDS011;59785;52.582;13.892;2022-09-09T05:23:48;26.50;;;14.68;;
15970;SDS011;59785;52.582;13.892;2022-09-09T05:26:18;26.20;;;14.95;;
15970;SDS011;59785;52.582;13.892;2022-09-09T05:28:48;26.55;;;15.00;;
15970;SDS011;59785;52.582;13.892;2022-09-09T05:31:15;25.35;;;14.45;;
15970;SDS011;59785;52.582;13.892;2022-09-09T05:33:44;25.33;;;15.85;;
15970;SDS011;59785;52.582;13.892;2022-09-09T05:36:13;22.65;;;15.75;;
15970;SDS011;59785;52.582;13.892;2022-09-09T05:38:41;25.77;;;16.88;;
15970;SDS011;59785;52.582;13.892;2022-09-09T05:41:08;23.08;;;15.85;;
15970;SDS011;59785;52.582;13.892;2022-09-09T05:43:37;21.02;;;14.95;;
15970;SDS011;59785;52.582;13.892;2022-09-09T05:46:08;20.85;;;14.73;;
15970;SDS011;59785;52.582;13.892;2022-09-09T05:48:37;21.60;;;14.23;;
15970;SDS011;59785;52.582;13.892;2022-09-09T05:51:06;20.92;;;14.70;;
15970;SDS011;59785;52.582;13.892;2022-09-09T05:53:35;27.23;;;15.95;;
15970;SDS011;59785;52.582;13.892;2022-09-09T05:56:03;22.52;;;15.77;;
15970;SDS011;59785;52.582;13.892;2022-09-09T05:58:33;21.20;;;15.38;;
15970;SDS011;59785;52.582;13.892;2022-09-09T06:01:07;20.90;;;14.77;;
15970;SDS011;59785;52.582;13.892;2022-09-09T06:03:37;23.05;;;15.77;;
15970;SDS011;59785;52.582;13.892;2022-09-09T06:06:06;23.00;;;15.60;;
15970;SDS011;59785;52.582;13.892;2022-09-09T06:08:34;21.15;;;15.82;;
15970;SDS011;59785;52.582;13.892;2022-09-09T06:11:10;22.20;;;14.90;;
15970;SDS011;59785;52.582;13.892;2022-09-09T06:13:41;24.27;;;15.35;;
15970;SDS011;59785;52.582;13.892;2022-09-09T06:16:08;20.55;;;15.00;;
15970;SDS011;59785;52.582;13.892;2022-09-09T06:18:38;18.88;;;14.75;;
15970;SDS011;59785;52.582;13.892;2022-09-09T06:21:05;22.42;;;14.35;;
15970;SDS011;59785;52.582;13.892;2022-09-09T06:23:33;17.88;;;14.30;;
15970;SDS011;59785;52.582;13.892;2022-09-09T06:26:07;16.45;;;13.90;;
15970;SDS011;59785;52.582;13.892;2022-09-09T06:28:36;18.25;;;12.85;;
15970;SDS011;59785;52.582;13.892;2022-09-09T06:31:07;18.23;;;13.15;;
15970;SDS011;59785;52.582;13.892;2022-09-09T06:33:35;17.08;;;13.00;;
15970;SDS011;59785;52.582;13.892;2022-09-09T06:36:05;16.35;;;11.98;;
15970;SDS011;59785;52.582;13.892;2022-09-09T06:38:31;18.05;;;12.73;;
15970;SDS011;59785;52.582;13.892;2022-09-09T06:40:59;14.68;;;11.38;;
15970;SDS011;59785;52.582;13.892;2022-09-09T06:43:27;14.38;;;11.85;;
15970;SDS011;59785;52.582;13.892;2022-09-09T06:45:54;15.32;;;11.15;;
15970;SDS011;59785;52.582;13.892;2022-09-09T06:48:21;14.32;;;10.65;;
15970;SDS011;59785;52.582;13.892;2022-09-09T06:50:48;12.85;;;10.23;;
15970;SDS011;59785;52.582;13.892;2022-09-09T06:53:17;13.00;;;9.98;;
15970;SDS011;59785;52.582;13.892;2022-09-09T06:55:45;12.95;;;10.07;;
15970;SDS011;59785;52.582;13.892;2022-09-09T06:58:12;10.52;;;9.23;;
15970;SDS011;59785;52.582;13.892;2022-09-09T07:00:38;14.88;;;10.15;;
15970;SDS011;59785;52.582;13.892;2022-09-09T07:03:05;12.70;;;8.93;;
15970;SDS011;59785;52.582;13.892;2022-09-09T07:05:31;13.15;;;10.70;;
15970;SDS011;59785;52.582;13.892;2022-09-09T07:07:58;14.27;;;10.02;;
15970;SDS011;59785;52.582;13.892;2022-09-09T07:10:25;14.27;;;10.27;;
15970;SDS011;59785;52.582;13.892;2022-09-09T07:12:51;11.70;;;9.77;;
15970;SDS011;59785;52.582;13.892;2022-09-09T07:15:20;11.98;;;9.68;;
15970;SDS011;59785;52.582;13.892;2022-09-09T07:17:48;12.30;;;8.65;;
15970;SDS011;59785;52.582;13.892;2022-09-09T07:20:14;12.10;;;9.05;;
15970;SDS011;59785;52.582;13.892;2022-09-09T07:22:41;13.15;;;8.93;;
15970;SDS011;59785;52.582;13.892;2022-09-09T07:25:08;13.77;;;8.98;;
15970;SDS011;59785;52.582;13.892;2022-09-09T07:27:35;12.60;;;8.90;;
15970;SDS011;59785;52.582;13.892;2022-09-09T07:30:02;12.25;;;10.02;;
15970;SDS011;59785;52.582;13.892;2022-09-09T07:32:31;12.02;;;8.38;;
15970;SDS011;59785;52.582;13.892;2022-09-09T07:34:57;13.50;;;8.93;;
15970;SDS011;59785;52.582;13.892;2022-09-09T07:37:26;10.18;;;7.85;;
15970;SDS011;59785;52.582;13.892;2022-09-09T07:39:52;11.73;;;7.40;;
15970;SDS011;59785;52.582;13.892;2022-09-09T07:42:18;13.77;;;7.57;;
15970;SDS011;59785;52.582;13.892;2022-09-09T07:44:45;12.63;;;7.85;;
15970;SDS011;59785;52.582;13.892;2022-09-09T07:47:14;10.10;;;6.97;;
15970;SDS011;59785;52.582;13.892;2022-09-09T07:49:43;11.63;;;6.93;;
15970;SDS011;59785;52.582;13.892;2022-09-09T07:52:14;8.02;;;6.22;;
15970;SDS011;59785;52.582;13.892;2022-09-09T07:54:47;10.18;;;6.40;;
15970;SDS011;59785;52.582;13.892;2022-09-09T07:57:13;7.68;;;5.43;;
15970;SDS011;59785;52.582;13.892;2022-09-09T07:59:41;9.90;;;5.63;;
15970;SDS011;59785;52.582;13.892;2022-09-09T08:02:08;10.70;;;5.88;;
15970;SDS011;59785;52.582;13.892;2022-09-09T08:04:35;6.82;;;4.90;;
15970;SDS011;59785;52.582;13.892;2022-09-09T08:07:02;6.15;;;4.60;;
15970;SDS011;59785;52.582;13.892;2022-09-09T08:09:34;7.65;;;4.28;;
15970;SDS011;59785;52.582;13.892;2022-09-09T08:12:06;6.60;;;4.93;;
15970;SDS011;59785;52.582;13.892;2022-09-09T08:14:32;6.88;;;4.38;;
15970;SDS011;59785;52.582;13.892;2022-09-09T08:17:00;8.40;;;5.15;;
15970;SDS011;59785;52.582;13.892;2022-09-09T08:19:27;6.47;;;4.28;;
15970;SDS011;59785;52.582;13.892;2022-09-09T08:21:57;7.68;;;4.28;;
15970;SDS011;59785;52.582;13.892;2022-09-09T08:24:23;8.07;;;3.90;;
15970;SDS011;59785;52.582;13.892;2022-09-09T08:26:50;8.95;;;4.07;;
15970;SDS011;59785;52.582;13.892;2022-09-09T08:29:20;6.50;;;3.72;;
15970;SDS011;59785;52.582;13.892;2022-09-09T08:31:48;16.35;;;4.22;;
15970;SDS011;59785;52.582;13.892;2022-09-09T08:34:15;6.88;;;3.85;;
15970;SDS011;59785;52.582;13.892;2022-09-09T08:36:43;4.20;;;3.42;;
15970;SDS011;59785;52.582;13.892;2022-09-09T08:39:12;6.10;;;3.45;;
15970;SDS011;59785;52.582;13.892;2022-09-09T08:41:45;5.20;;;3.67;;
15970;SDS011;59785;52.582;13.892;2022-09-09T08:47:33;7.30;;;4.22;;
15970;SDS011;59785;52.582;13.892;2022-09-09T08:52:49;7.57;;;4.38;;
15970;SDS011;59785;52.582;13.892;2022-09-09T08:55:35;4.65;;;3.22;;
15970;SDS011;59785;52.582;13.892;2022-09-09T08:58:12;6.93;;;3.42;;
15970;SDS011;59785;52.582;13.892;2022-09-09T09:00:45;5.03;;;3.72;;
15970;SDS011;59785;52.582;13.892;2022-09-09T09:03:25;6.47;;;3.60;;
15970;SDS011;59785;52.582;13.892;2022-09-09T09:06:04;5.13;;;3.70;;
15970;SDS011;59785;52.582;13.892;2022-09-09T09:08:47;6.63;;;3.83;;
15970;SDS011;59785;52.582;13.892;2022-09-09T09:11:23;10.35;;;3.80;;
15970;SDS011;59785;52.582;13.892;2022-09-09T09:14:09;5.45;;;3.60;;
15970;SDS011;59785;52.582;13.892;2022-09-09T09:16:55;4.72;;;3.45;;
15970;SDS011;59785;52.582;13.892;2022-09-09T09:19:26;4.07;;;3.00;;
15970;SDS011;59785;52.582;13.892;2022-09-09T09:24:52;7.38;;;2.72;;
15970;SDS011;59785;52.582;13.892;2022-09-09T09:27:36;8.38;;;3.13;;
15970;SDS011;59785;52.582;13.892;2022-09-09T09:30:14;4.43;;;2.42;;
15970;SDS011;59785;52.582;13.892;2022-09-09T09:33:02;7.63;;;2.75;;
15970;SDS011;59785;52.582;13.892;2022-09-09T09:35:40;5.72;;;2.40;;
15970;SDS011;59785;52.582;13.892;2022-09-09T09:38:18;5.43;;;2.72;;
15970;SDS011;59785;52.582;13.892;2022-09-09T09:41:10;7.72;;;2.80;;
15970;SDS011;59785;52.582;13.892;2022-09-09T09:43:37;4.55;;;2.53;;
15970;SDS011;59785;52.582;13.892;2022-09-09T09:46:20;4.82;;;3.47;;
15970;SDS011;59785;52.582;13.892;2022-09-09T09:49:09;4.80;;;3.60;;
15970;SDS011;59785;52.582;13.892;2022-09-09T09:51:37;5.85;;;3.88;;
15970;SDS011;59785;52.582;13.892;2022-09-09T09:54:08;8.38;;;6.15;;
15970;SDS011;59785;52.582;13.892;2022-09-09T09:56:37;5.90;;;4.60;;
15970;SDS011;59785;52.582;13.892;2022-09-09T09:59:04;6.22;;;3.08;;
15970;SDS011;59785;52.582;13.892;2022-09-09T10:01:48;5.55;;;2.63;;
15970;SDS011;59785;52.582;13.892;2022-09-09T10:04:19;4.03;;;3.60;;
15970;SDS011;59785;52.582;13.892;2022-09-09T10:06:52;5.32;;;3.30;;
15970;SDS011;59785;52.582;13.892;2022-09-09T10:09:20;3.85;;;3.17;;
15970;SDS011;59785;52.582;13.892;2022-09-09T10:14:39;6.68;;;2.92;;
15970;SDS011;59785;52.582;13.892;2022-09-09T10:17:20;4.95;;;2.63;;
15970;SDS011;59785;52.582;13.892;2022-09-09T10:20:04;3.65;;;2.30;;
15970;SDS011;59785;52.582;13.892;2022-09-09T10:22:50;3.75;;;2.42;;
15970;SDS011;59785;52.582;13.892;2022-09-09T10:25:33;4.55;;;2.38;;
15970;SDS011;59785;52.582;13.892;2022-09-09T10:28:34;4.95;;;2.25;;
15970;SDS011;59785;52.582;13.892;2022-09-09T10:36:48;5.50;;;2.83;;
15970;SDS011;59785;52.582;13.892;2022-09-09T10:42:05;7.53;;;2.60;;
15970;SDS011;59785;52.582;13.892;2022-09-09T10:44:48;5.18;;;2.67;;
15970;SDS011;59785;52.582;13.892;2022-09-09T10:50:29;5.67;;;2.50;;
15970;SDS011;59785;52.582;13.892;2022-09-09T10:53:52;6.25;;;3.03;;
15970;SDS011;59785;52.582;13.892;2022-09-09T10:56:24;4.80;;;3.05;;
15970;SDS011;59785;52.582;13.892;2022-09-09T10:58:59;4.53;;;3.20;;
15970;SDS011;59785;52.582;13.892;2022-09-09T11:01:57;3.40;;;2.80;;
15970;SDS011;59785;52.582;13.892;2022-09-09T11:04:33;5.57;;;2.70;;
15970;SDS011;59785;52.582;13.892;2022-09-09T11:07:12;5.80;;;5.18;;
15970;SDS011;59785;52.582;13.892;2022-09-09T11:09:42;3.65;;;3.03;;
15970;SDS011;59785;52.582;13.892;2022-09-09T11:14:49;4.35;;;3.15;;
15970;SDS011;59785;52.582;13.892;2022-09-09T11:17:22;5.57;;;3.30;;
15970;SDS011;59785;52.582;13.892;2022-09-09T11:19:52;4.78;;;3.65;;
15970;SDS011;59785;52.582;13.892;2022-09-09T11:24:53;5.80;;;3.40;;
15970;SDS011;59785;52.582;13.892;2022-09-09T11:27:42;3.40;;;2.80;;
15970;SDS011;59785;52.582;13.892;2022-09-09T11:30:20;4.93;;;3.20;;
15970;SDS011;59785;52.582;13.892;2022-09-09T11:39:07;3.65;;;2.10;;
15970;SDS011;59785;52.582;13.892;2022-09-09T11:41:40;4.88;;;2.60;;
15970;SDS011;59785;52.582;13.892;2022-09-09T11:44:13;6.07;;;3.13;;
15970;SDS011;59785;52.582;13.892;2022-09-09T11:46:46;6.78;;;2.63;;
15970;SDS011;59785;52.582;13.892;2022-09-09T11:49:29;5.53;;;2.08;;
15970;SDS011;59785;52.582;13.892;2022-09-09T11:52:11;2.60;;;2.30;;
15970;SDS011;59785;52.582;13.892;2022-09-09T11:54:47;4.05;;;2.35;;
15970;SDS011;59785;52.582;13.892;2022-09-09T11:57:25;4.53;;;2.90;;
15970;SDS011;59785;52.582;13.892;2022-09-09T11:59:58;4.10;;;3.08;;
15970;SDS011;59785;52.582;13.892;2022-09-09T12:02:25;2.90;;;2.10;;
15970;SDS011;59785;52.582;13.892;2022-09-09T12:07:33;3.03;;;2.72;;
15970;SDS011;59785;52.582;13.892;2022-09-09T12:17:56;5.07;;;2.20;;
15970;SDS011;59785;52.582;13.892;2022-09-09T12:20:33;4.55;;;2.88;;
15970;SDS011;59785;52.582;13.892;2022-09-09T12:25:45;4.63;;;2.75;;
15970;SDS011;59785;52.582;13.892;2022-09-09T12:31:18;2.72;;;2.53;;
15970;SDS011;59785;52.582;13.892;2022-09-09T12:34:10;3.83;;;3.28;;
15970;SDS011;59785;52.582;13.892;2022-09-09T12:36:39;3.83;;;2.50;;
15970;SDS011;59785;52.582;13.892;2022-09-09T12:39:15;5.03;;;2.95;;
15970;SDS011;59785;52.582;13.892;2022-09-09T12:41:53;8.40;;;3.83;;
15970;SDS011;59785;52.582;13.892;2022-09-09T12:44:23;6.97;;;3.05;;
15970;SDS011;59785;52.582;13.892;2022-09-09T12:46:51;2.50;;;2.30;;
15970;SDS011;59785;52.582;13.892;2022-09-09T12:49:26;6.63;;;2.85;;
15970;SDS011;59785;52.582;13.892;2022-09-09T12:52:04;5.28;;;3.90;;
15970;SDS011;59785;52.582;13.892;2022-09-09T12:54:50;8.18;;;7.60;;
15970;SDS011;59785;52.582;13.892;2022-09-09T12:57:17;6.53;;;5.93;;
15970;SDS011;59785;52.582;13.892;2022-09-09T12:59:43;4.03;;;3.08;;
15970;SDS011;59785;52.582;13.892;2022-09-09T13:02:18;6.07;;;3.20;;
15970;SDS011;59785;52.582;13.892;2022-09-09T13:07:16;3.28;;;2.10;;
15970;SDS011;59785;52.582;13.892;2022-09-09T13:09:44;4.38;;;2.17;;
15970;SDS011;59785;52.582;13.892;2022-09-09T13:12:16;2.60;;;1.65;;
15970;SDS011;59785;52.582;13.892;2022-09-09T13:14:51;2.53;;;1.77;;
15970;SDS011;59785;52.582;13.892;2022-09-09T13:17:23;3.75;;;2.38;;
15970;SDS011;59785;52.582;13.892;2022-09-09T13:19:51;4.60;;;1.98;;
15970;SDS011;59785;52.582;13.892;2022-09-09T13:22:20;2.58;;;1.80;;
15970;SDS011;59785;52.582;13.892;2022-09-09T13:24:58;4.13;;;1.70;;
15970;SDS011;59785;52.582;13.892;2022-09-09T13:27:27;5.70;;;2.80;;
15970;SDS011;59785;52.582;13.892;2022-09-09T13:29:56;4.93;;;2.13;;
15970;SDS011;59785;52.582;13.892;2022-09-09T13:32:23;4.93;;;2.38;;
15970;SDS011;59785;52.582;13.892;2022-09-09T13:34:51;4.18;;;1.70;;
15970;SDS011;59785;52.582;13.892;2022-09-09T13:37:31;3.63;;;1.73;;
15970;SDS011;59785;52.582;13.892;2022-09-09T13:40:04;4.78;;;2.22;;
15970;SDS011;59785;52.582;13.892;2022-09-09T13:42:33;2.42;;;1.80;;
15970;SDS011;59785;52.582;13.892;2022-09-09T13:45:03;4.53;;;2.30;;
15970;SDS011;59785;52.582;13.892;2022-09-09T13:47:31;3.72;;;2.13;;
15970;SDS011;59785;52.582;13.892;2022-09-09T13:50:10;5.65;;;2.40;;
15970;SDS011;59785;52.582;13.892;2022-09-09T13:52:45;8.18;;;2.13;;
15970;SDS011;59785;52.582;13.892;2022-09-09T13:55:11;2.53;;;1.60;;
15970;SDS011;59785;52.582;13.892;2022-09-09T13:57:37;3.40;;;1.67;;
15970;SDS011;59785;52.582;13.892;2022-09-09T14:00:04;3.72;;;3.10;;
15970;SDS011;59785;52.582;13.892;2022-09-09T14:02:32;3.70;;;1.90;;
15970;SDS011;59785;52.582;13.892;2022-09-09T14:04:59;5.53;;;2.60;;
15970;SDS011;59785;52.582;13.892;2022-09-09T14:07:25;4.25;;;1.80;;
15970;SDS011;59785;52.582;13.892;2022-09-09T14:09:52;2.35;;;1.83;;
15970;SDS011;59785;52.582;13.892;2022-09-09T14:12:18;2.40;;;1.98;;
15970;SDS011;59785;52.582;13.892;2022-09-09T14:14:45;4.00;;;1.98;;
15970;SDS011;59785;52.582;13.892;2022-09-09T14:17:12;3.08;;;1.80;;
15970;SDS011;59785;52.582;13.892;2022-09-09T14:19:38;4.35;;;1.73;;
15970;SDS011;59785;52.582;13.892;2022-09-09T14:22:04;4.85;;;2.35;;
15970;SDS011;59785;52.582;13.892;2022-09-09T14:24:30;3.85;;;1.80;;
15970;SDS011;59785;52.582;13.892;2022-09-09T14:26:56;5.55;;;3.00;;
15970;SDS011;59785;52.582;13.892;2022-09-09T14:29:22;4.45;;;2.25;;
15970;SDS011;59785;52.582;13.892;2022-09-09T14:31:51;2.10;;;2.00;;
15970;SDS011;59785;52.582;13.892;2022-09-09T14:34:17;3.75;;;2.00;;
15970;SDS011;59785;52.582;13.892;2022-09-09T14:36:44;3.72;;;2.00;;
15970;SDS011;59785;52.582;13.892;2022-09-09T14:39:10;3.08;;;1.70;;
15970;SDS011;59785;52.582;13.892;2022-09-09T14:41:37;2.80;;;2.60;;
15970;SDS011;59785;52.582;13.892;2022-09-09T14:44:03;3.65;;;1.83;;
15970;SDS011;59785;52.582;13.892;2022-09-09T14:46:29;3.50;;;2.20;;
15970;SDS011;59785;52.582;13.892;2022-09-09T14:48:56;3.42;;;2.67;;
15970;SDS011;59785;52.582;13.892;2022-09-09T14:51:23;3.55;;;1.70;;
15970;SDS011;59785;52.582;13.892;2022-09-09T14:53:53;2.78;;;1.83;;
15970;SDS011;59785;52.582;13.892;2022-09-09T14:56:22;3.22;;;1.52;;
15970;SDS011;59785;52.582;13.892;2022-09-09T14:58:50;3.42;;;1.65;;
15970;SDS011;59785;52.582;13.892;2022-09-09T15:01:17;3.03;;;1.75;;
15970;SDS011;59785;52.582;13.892;2022-09-09T15:03:51;5.07;;;1.80;;
15970;SDS011;59785;52.582;13.892;2022-09-09T15:06:22;4.22;;;1.70;;
15970;SDS011;59785;52.582;13.892;2022-09-09T15:08:50;2.33;;;1.60;;
15970;SDS011;59785;52.582;13.892;2022-09-09T15:11:18;4.60;;;1.50;;
15970;SDS011;59785;52.582;13.892;2022-09-09T15:13:46;3.25;;;2.10;;
15970;SDS011;59785;52.582;13.892;2022-09-09T15:16:13;2.85;;;1.70;;
15970;SDS011;59785;52.582;13.892;2022-09-09T15:18:42;2.38;;;2.03;;
15970;SDS011;59785;52.582;13.892;2022-09-09T15:21:11;2.78;;;1.55;;
15970;SDS011;59785;52.582;13.892;2022-09-09T15:23:39;12.93;;;2.38;;
15970;SDS011;59785;52.582;13.892;2022-09-09T15:26:06;2.47;;;1.80;;
15970;SDS011;59785;52.582;13.892;2022-09-09T15:31:12;3.28;;;2.20;;
15970;SDS011;59785;52.582;13.892;2022-09-09T15:33:49;6.25;;;2.13;;
15970;SDS011;59785;52.582;13.892;2022-09-09T15:36:23;4.40;;;2.40;;
15970;SDS011;59785;52.582;13.892;2022-09-09T15:38:51;3.42;;;2.05;;
15970;SDS011;59785;52.582;13.892;2022-09-09T15:41:18;1.80;;;1.70;;
15970;SDS011;59785;52.582;13.892;2022-09-09T15:43:46;3.35;;;2.30;;
15970;SDS011;59785;52.582;13.892;2022-09-09T15:46:35;2.40;;;1.98;;
15970;SDS011;59785;52.582;13.892;2022-09-09T15:49:04;2.28;;;1.98;;
15970;SDS011;59785;52.582;13.892;2022-09-09T15:51:35;2.72;;;2.20;;
15970;SDS011;59785;52.582;13.892;2022-09-09T15:54:09;1.80;;;1.70;;
15970;SDS011;59785;52.582;13.892;2022-09-09T15:56:38;2.80;;;2.20;;
15970;SDS011;59785;52.582;13.892;2022-09-09T15:59:04;3.55;;;2.13;;
15970;SDS011;59785;52.582;13.892;2022-09-09T16:01:30;3.03;;;1.80;;
15970;SDS011;59785;52.582;13.892;2022-09-09T16:03:57;2.72;;;2.00;;
15970;SDS011;59785;52.582;13.892;2022-09-09T16:06:26;3.03;;;2.10;;
15970;SDS011;59785;52.582;13.892;2022-09-09T16:08:54;2.42;;;2.25;;
15970;SDS011;59785;52.582;13.892;2022-09-09T16:11:22;2.90;;;2.20;;
15970;SDS011;59785;52.582;13.892;2022-09-09T16:13:54;6.85;;;2.25;;
15970;SDS011;59785;52.582;13.892;2022-09-09T16:16:22;3.03;;;1.80;;
15970;SDS011;59785;52.582;13.892;2022-09-09T16:18:50;2.17;;;1.83;;
15970;SDS011;59785;52.582;13.892;2022-09-09T16:21:20;2.80;;;1.70;;
15970;SDS011;59785;52.582;13.892;2022-09-09T16:23:55;4.47;;;2.30;;
15970;SDS011;59785;52.582;13.892;2022-09-09T16:26:25;2.33;;;1.70;;
15970;SDS011;59785;52.582;13.892;2022-09-09T16:28:53;2.63;;;1.70;;
15970;SDS011;59785;52.582;13.892;2022-09-09T16:31:25;5.38;;;2.30;;
15970;SDS011;59785;52.582;13.892;2022-09-09T16:33:53;8.88;;;2.85;;
15970;SDS011;59785;52.582;13.892;2022-09-09T16:36:26;5.03;;;1.85;;
15970;SDS011;59785;52.582;13.892;2022-09-09T16:38:58;4.60;;;1.90;;
15970;SDS011;59785;52.582;13.892;2022-09-09T16:41:26;3.25;;;1.80;;
15970;SDS011;59785;52.582;13.892;2022-09-09T16:43:57;4.53;;;2.78;;
15970;SDS011;59785;52.582;13.892;2022-09-09T16:46:25;6.20;;;4.53;;
15970;SDS011;59785;52.582;13.892;2022-09-09T16:48:53;4.80;;;3.63;;
15970;SDS011;59785;52.582;13.892;2022-09-09T16:51:23;4.57;;;2.33;;
15970;SDS011;59785;52.582;13.892;2022-09-09T16:53:54;14.88;;;13.93;;
15970;SDS011;59785;52.582;13.892;2022-09-09T16:56:24;8.90;;;7.63;;
15970;SDS011;59785;52.582;13.892;2022-09-09T16:58:59;7.35;;;6.68;;
15970;SDS011;59785;52.582;13.892;2022-09-09T17:01:33;6.82;;;6.22;;
15970;SDS011;59785;52.582;13.892;2022-09-09T17:04:04;5.70;;;3.08;;
15970;SDS011;59785;52.582;13.892;2022-09-09T17:06:32;3.92;;;3.53;;
15970;SDS011;59785;52.582;13.892;2022-09-09T17:09:07;6.07;;;3.30;;
15970;SDS011;59785;52.582;13.892;2022-09-09T17:11:35;5.38;;;3.28;;
15970;SDS011;59785;52.582;13.892;2022-09-09T17:14:03;5.15;;;4.60;;
15970;SDS011;59785;52.582;13.892;2022-09-09T17:16:30;7.30;;;4.05;;
15970;SDS011;59785;52.582;13.892;2022-09-09T17:18:59;6.68;;;6.10;;
15970;SDS011;59785;52.582;13.892;2022-09-09T17:21:29;6.93;;;5.35;;
15970;SDS011;59785;52.582;13.892;2022-09-09T17:23:57;6.30;;;5.45;;
15970;SDS011;59785;52.582;13.892;2022-09-09T17:26:25;8.70;;;7.75;;
15970;SDS011;59785;52.582;13.892;2022-09-09T17:28:53;7.68;;;6.85;;
15970;SDS011;59785;52.582;13.892;2022-09-09T17:31:24;5.57;;;4.57;;
15970;SDS011;59785;52.582;13.892;2022-09-09T17:33:52;7.65;;;6.93;;
15970;SDS011;59785;52.582;13.892;2022-09-09T17:36:19;4.53;;;4.13;;
15970;SDS011;59785;52.582;13.892;2022-09-09T17:38:49;8.15;;;3.78;;
15970;SDS011;59785;52.582;13.892;2022-09-09T17:41:17;6.70;;;6.18;;
15970;SDS011;59785;52.582;13.892;2022-09-09T17:43:45;8.00;;;7.22;;
15970;SDS011;59785;52.582;13.892;2022-09-09T17:46:13;7.60;;;5.47;;
15970;SDS011;59785;52.582;13.892;2022-09-09T17:48:42;7.93;;;5.55;;
15970;SDS011;59785;52.582;13.892;2022-09-09T17:51:14;5.93;;;4.80;;
15970;SDS011;59785;52.582;13.892;2022-09-09T17:53:45;9.67;;;6.00;;
15970;SDS011;59785;52.582;13.892;2022-09-09T17:56:14;5.28;;;4.10;;
15970;SDS011;59785;52.582;13.892;2022-09-09T17:58:42;4.63;;;4.22;;
15970;SDS011;59785;52.582;13.892;2022-09-09T18:01:09;5.28;;;3.75;;
15970;SDS011;59785;52.582;13.892;2022-09-09T18:03:40;6.30;;;4.30;;
15970;SDS011;59785;52.582;13.892;2022-09-09T18:06:09;4.93;;;3.90;;
15970;SDS011;59785;52.582;13.892;2022-09-09T18:08:38;6.95;;;4.43;;
15970;SDS011;59785;52.582;13.892;2022-09-09T18:11:05;4.55;;;3.25;;
15970;SDS011;59785;52.582;13.892;2022-09-09T18:13:32;5.45;;;3.90;;
15970;SDS011;59785;52.582;13.892;2022-09-09T18:15:59;5.15;;;3.55;;
15970;SDS011;59785;52.582;13.892;2022-09-09T18:18:26;6.28;;;4.05;;
15970;SDS011;59785;52.582;13.892;2022-09-09T18:20:57;6.60;;;3.33;;
15970;SDS011;59785;52.582;13.892;2022-09-09T18:23:27;5.00;;;3.00;;
15970;SDS011;59785;52.582;13.892;2022-09-09T18:25:54;7.00;;;3.72;;
15970;SDS011;59785;52.582;13.892;2022-09-09T18:28:20;6.35;;;3.90;;
15970;SDS011;59785;52.582;13.892;2022-09-09T18:30:49;6.90;;;3.38;;
15970;SDS011;59785;52.582;13.892;2022-09-09T18:33:16;4.47;;;2.95;;
15970;SDS011;59785;52.582;13.892;2022-09-09T18:35:42;7.70;;;3.13;;
15970;SDS011;59785;52.582;13.892;2022-09-09T18:38:09;9.57;;;3.47;;
15970;SDS011;59785;52.582;13.892;2022-09-09T18:40:35;7.57;;;3.50;;
15970;SDS011;59785;52.582;13.892;2022-09-09T18:43:02;6.47;;;3.45;;
15970;SDS011;59785;52.582;13.892;2022-09-09T18:45:28;6.63;;;3.42;;
15970;SDS011;59785;52.582;13.892;2022-09-09T18:47:54;4.30;;;3.05;;
15970;SDS011;59785;52.582;13.892;2022-09-09T18:50:21;7.57;;;2.80;;
15970;SDS011;59785;52.582;13.892;2022-09-09T18:52:47;4.15;;;2.83;;
15970;SDS011;59785;52.582;13.892;2022-09-09T18:55:14;6.40;;;3.38;;
15970;SDS011;59785;52.582;13.892;2022-09-09T18:57:40;8.55;;;3.10;;
15970;SDS011;59785;52.582;13.892;2022-09-09T19:00:07;3.15;;;2.55;;
15970;SDS011;59785;52.582;13.892;2022-09-09T19:02:35;4.68;;;2.55;;
15970;SDS011;59785;52.582;13.892;2022-09-09T19:05:01;4.80;;;3.13;;
15970;SDS011;59785;52.582;13.892;2022-09-09T19:07:28;5.10;;;2.90;;
15970;SDS011;59785;52.582;13.892;2022-09-09T19:09:54;5.32;;;2.75;;